createdAt,value
2019-01-24T00:02:07.965Z,95043.00
2019-01-24T00:04:39.607Z,95048.07
2019-01-24T00:07:08.839Z,95052.48
2019-01-24T00:09:39.095Z,95051.11
2019-01-24T00:12:12.095Z,95052.13
2019-01-24T00:14:42.494Z,95050.83
2019-01-24T00:17:11.683Z,95056.31
2019-01-24T00:19:45.930Z,95061.50
2019-01-24T00:22:15.066Z,95065.41
2019-01-24T00:24:44.233Z,95065.62
2019-01-24T00:27:18.631Z,95068.91
2019-01-24T00:29:57.165Z,95066.70
2019-01-24T00:32:26.295Z,95075.24
2019-01-24T00:34:57.546Z,95084.87
2019-01-24T00:37:26.556Z,95080.62
2019-01-24T00:39:55.759Z,95086.06
2019-01-24T00:42:28.503Z,95089.72
2019-01-24T00:44:57.625Z,95086.87
2019-01-24T00:47:28.250Z,95088.16
2019-01-24T00:49:59.089Z,95091.59
2019-01-24T00:52:28.363Z,95097.03
2019-01-24T00:54:57.577Z,95099.16
2019-01-24T00:57:26.914Z,95104.09
2019-01-24T00:59:57.489Z,95107.69
2019-01-24T01:02:28.418Z,95106.94
2019-01-24T01:04:58.074Z,95111.38
2019-01-24T01:07:27.192Z,95110.02
2019-01-24T01:09:56.388Z,95117.64
2019-01-24T01:12:25.537Z,95119.45
2019-01-24T01:14:57.651Z,95117.41
2019-01-24T01:17:32.794Z,95126.42
2019-01-24T01:20:07.373Z,95125.77
2019-01-24T01:22:37.694Z,95128.56
2019-01-24T01:25:09.822Z,95128.27
2019-01-24T01:27:41.074Z,95162.06
2019-01-24T01:30:22.704Z,95125.31
2019-01-24T01:32:56.190Z,95124.92
2019-01-24T01:35:31.874Z,95129.87
2019-01-24T01:38:23.408Z,95134.21
2019-01-24T01:40:52.676Z,95147.14
2019-01-24T01:43:23.667Z,95147.33
2019-01-24T01:45:54.356Z,95157.30
2019-01-24T01:48:25.030Z,95164.17
2019-01-24T01:50:57.516Z,95161.90
2019-01-24T01:53:28.603Z,95168.18
2019-01-24T01:55:59.683Z,95166.41
2019-01-24T01:58:28.842Z,95164.73
2019-01-24T02:00:58.158Z,95173.73
2019-01-24T02:03:33.468Z,95167.95
2019-01-24T02:06:02.597Z,95172.31
2019-01-24T02:08:32.090Z,95179.88
2019-01-24T02:11:03.708Z,95175.31
2019-01-24T02:13:35.107Z,95174.89
2019-01-24T02:16:08.511Z,95180.88
2019-01-24T02:18:42.958Z,95179.20
2019-01-24T02:21:14.211Z,95180.61
2019-01-24T02:26:14.107Z,95182.14
2019-01-24T02:28:43.310Z,95187.72
2019-01-24T02:31:13.637Z,95192.81
2019-01-24T02:33:46.517Z,95196.09
2019-01-24T02:36:19.708Z,95198.38
2019-01-24T02:38:48.867Z,95192.13
2019-01-24T02:41:20.871Z,95193.17
2019-01-24T02:43:49.980Z,95188.00
2019-01-24T02:46:25.050Z,95191.87
2019-01-24T02:48:54.874Z,95195.61
2019-01-24T02:51:23.973Z,95195.41
2019-01-24T02:53:57.297Z,95201.59
2019-01-24T02:56:29.582Z,95199.73
2019-01-24T02:59:04.092Z,95209.97
2019-01-24T03:01:33.864Z,95213.31
2019-01-24T03:04:03.054Z,95217.36
2019-01-24T03:06:32.210Z,95214.02
2019-01-24T03:09:05.526Z,95213.79
2019-01-24T03:11:36.275Z,95215.79
2019-01-24T03:14:06.588Z,95221.41
2019-01-24T03:16:36.817Z,95217.89
2019-01-24T03:19:07.754Z,95216.86
2019-01-24T03:21:37.319Z,95223.91
2019-01-24T03:24:08.862Z,95226.33
2019-01-24T03:26:39.921Z,95231.19
2019-01-24T03:29:12.143Z,95240.41
2019-01-24T03:31:43.787Z,95231.53
2019-01-24T03:34:12.875Z,95238.19
2019-01-24T03:36:42.013Z,95239.34
2019-01-24T03:39:12.431Z,95235.06
2019-01-24T03:41:45.226Z,95233.94
2019-01-24T03:44:15.959Z,95236.79
2019-01-24T03:46:45.108Z,95239.97
2019-01-24T03:49:14.434Z,95236.79
2019-01-24T03:51:44.704Z,95235.58
2019-01-24T03:54:16.360Z,95242.98
2019-01-24T03:56:49.229Z,95241.08
2019-01-24T03:59:24.494Z,95246.07
2019-01-24T04:01:54.946Z,95246.38
2019-01-24T04:04:25.718Z,95244.11
2019-01-24T04:06:54.853Z,95245.65
2019-01-24T04:09:27.201Z,95248.52
2019-01-24T04:11:58.829Z,95252.98
2019-01-24T04:14:29.988Z,95261.01
2019-01-24T04:17:01.220Z,95262.63
2019-01-24T04:19:32.947Z,95260.50
2019-01-24T04:22:03.489Z,95261.55
2019-01-24T04:24:34.254Z,95262.78
2019-01-24T04:27:05.407Z,95264.43
2019-01-24T04:29:34.553Z,95260.61
2019-01-24T04:32:05.174Z,95258.94
2019-01-24T04:34:36.001Z,95270.35
2019-01-24T04:37:07.887Z,95260.95
2019-01-24T04:39:41.755Z,95263.17
2019-01-24T04:42:17.527Z,95266.19
2019-01-24T04:44:46.655Z,95268.47
2019-01-24T04:47:16.401Z,95272.86
2019-01-24T04:49:51.179Z,95283.41
2019-01-24T04:52:22.068Z,95276.81
2019-01-24T04:54:51.501Z,95282.40
2019-01-24T04:57:21.024Z,95288.38
2019-01-24T04:59:51.840Z,95282.66
2019-01-24T05:02:24.196Z,95288.05
2019-01-24T05:04:57.445Z,95292.76
2019-01-24T05:07:28.081Z,95302.09
2019-01-24T05:09:57.238Z,95304.69
2019-01-24T05:12:31.040Z,93899.92
2019-01-24T05:15:00.382Z,95306.51
2019-01-24T05:17:29.522Z,95312.63
2019-01-24T05:20:05.705Z,95308.66
2019-01-24T05:22:34.895Z,95309.28
2019-01-24T05:25:04.615Z,95319.78
2019-01-24T05:27:35.503Z,95323.20
2019-01-24T05:30:07.070Z,95333.11
2019-01-24T05:32:39.482Z,95332.30
2019-01-24T05:35:11.958Z,95333.92
2019-01-24T05:37:41.344Z,95334.95
2019-01-24T05:40:11.237Z,95335.12
2019-01-24T05:42:41.686Z,95340.83
2019-01-24T05:45:12.443Z,95344.06
2019-01-24T05:47:45.118Z,95346.73
2019-01-24T05:50:14.619Z,95361.94
2019-01-24T05:52:44.520Z,95356.21
2019-01-24T05:55:15.336Z,95358.20
2019-01-24T05:57:44.580Z,95363.01
2019-01-24T06:00:19.972Z,95367.55
2019-01-24T06:02:51.999Z,95375.23
2019-01-24T06:05:23.155Z,95377.48
2019-01-24T06:07:54.970Z,95379.97
2019-01-24T06:10:24.187Z,95383.39
2019-01-24T06:12:57.328Z,95389.80
2019-01-24T06:15:25.072Z,95378.73
2019-01-24T06:17:55.362Z,95383.05
2019-01-24T06:20:26.959Z,95382.31
2019-01-24T06:22:56.071Z,95379.95
2019-01-24T06:25:27.227Z,95389.22
2019-01-24T06:27:56.410Z,95388.16
2019-01-24T06:30:26.981Z,95396.17
2019-01-24T06:33:02.069Z,95233.17
2019-01-24T06:35:33.898Z,95405.17
2019-01-24T06:38:05.097Z,95404.18
2019-01-24T06:40:36.805Z,95405.48
2019-01-24T06:43:09.544Z,95409.55
2019-01-24T06:45:38.652Z,95411.15
2019-01-24T06:48:10.018Z,95413.06
2019-01-24T06:50:40.555Z,95411.84
2019-01-24T06:53:24.573Z,95413.44
2019-01-24T06:55:48.123Z,95419.40
2019-01-24T06:58:18.797Z,95429.80
2019-01-24T07:00:49.421Z,95427.88
2019-01-24T07:03:23.103Z,95427.70
2019-01-24T07:05:55.574Z,95429.27
2019-01-24T07:08:30.239Z,95443.28
2019-01-24T07:10:59.409Z,95451.70
2019-01-24T07:13:29.621Z,95444.85
2019-01-24T07:16:07.502Z,95447.73
2019-01-24T07:18:36.661Z,95448.41
2019-01-24T07:21:06.059Z,95449.61
2019-01-24T07:23:44.284Z,95456.16
2019-01-24T07:26:19.657Z,95455.39
2019-01-24T07:28:49.081Z,95464.08
2019-01-24T07:31:25.707Z,95461.42
2019-01-24T07:33:54.905Z,95465.51
2019-01-24T07:36:24.513Z,95467.66
2019-01-24T07:38:54.208Z,95466.77
2019-01-24T07:41:26.616Z,95473.55
2019-01-24T07:43:56.470Z,95481.81
2019-01-24T07:46:29.267Z,95488.94
2019-01-24T07:48:59.694Z,95490.84
2019-01-24T07:51:28.895Z,95494.46
2019-01-24T07:54:06.505Z,95498.63
2019-01-24T07:56:38.560Z,95498.34
2019-01-24T07:59:07.721Z,95499.87
2019-01-24T08:01:39.612Z,95509.73
2019-01-24T08:04:14.769Z,95503.02
2019-01-24T08:06:44.084Z,95501.80
2019-01-24T08:09:14.697Z,95508.82
2019-01-24T08:11:45.279Z,95509.28
2019-01-24T08:14:16.326Z,95565.76
2019-01-24T08:16:45.512Z,95521.17
2019-01-24T08:19:20.529Z,95529.97
2019-01-24T08:21:49.604Z,95525.93
2019-01-24T08:24:21.261Z,95533.56
2019-01-24T08:26:54.386Z,95530.39
2019-01-24T08:29:24.300Z,95521.01
2019-01-24T08:31:53.691Z,95520.87
2019-01-24T08:34:22.952Z,95526.44
2019-01-24T08:36:53.746Z,95524.27
2019-01-24T08:39:22.900Z,95526.91
2019-01-24T08:41:54.685Z,95528.25
2019-01-24T08:44:32.096Z,95529.98
2019-01-24T08:47:01.762Z,95534.13
2019-01-24T08:49:31.187Z,95539.89
2019-01-24T08:52:03.958Z,95540.20
2019-01-24T08:54:34.278Z,95545.44
2019-01-24T08:57:10.959Z,95548.48
2019-01-24T08:59:40.192Z,95549.06
2019-01-24T09:02:10.485Z,95551.59
2019-01-24T09:04:40.703Z,95551.14
2019-01-24T09:07:14.496Z,95552.90
2019-01-24T09:09:43.763Z,95553.84
2019-01-24T09:12:13.741Z,95562.86
2019-01-24T09:14:47.437Z,95556.52
2019-01-24T09:17:16.565Z,95562.38
2019-01-24T09:19:46.240Z,95561.52
2019-01-24T09:22:19.666Z,95562.50
2019-01-24T09:24:50.423Z,95561.69
2019-01-24T09:27:26.365Z,95569.47
2019-01-24T09:30:02.283Z,95571.84
2019-01-24T09:32:31.380Z,95574.11
2019-01-24T09:35:01.276Z,95579.36
2019-01-24T09:37:35.377Z,95578.30
2019-01-24T09:40:08.233Z,95580.42
2019-01-24T09:42:42.470Z,95588.12
2019-01-24T09:45:19.315Z,95583.52
2019-01-24T09:47:48.710Z,95590.88
2019-01-24T09:50:21.742Z,95595.05
2019-01-24T09:52:51.970Z,95593.48
2019-01-24T09:55:24.009Z,95596.23
2019-01-24T09:57:55.619Z,95604.87
2019-01-24T10:00:29.255Z,95596.78
2019-01-24T10:03:00.687Z,95608.48
2019-01-24T10:05:30.106Z,95604.85
2019-01-24T10:08:00.741Z,95611.91
2019-01-24T10:10:32.223Z,95615.29
2019-01-24T10:13:13.938Z,95613.66
2019-01-24T10:15:43.645Z,95612.16
2019-01-24T10:18:21.435Z,95616.31
2019-01-24T10:20:54.369Z,95616.70
2019-01-24T10:23:24.925Z,95622.16
2019-01-24T10:26:00.309Z,95619.59
2019-01-24T10:28:29.558Z,95627.05
2019-01-24T10:30:58.926Z,95634.45
2019-01-24T10:33:31.220Z,95631.09
2019-01-24T10:36:15.748Z,95634.96
2019-01-24T10:38:45.117Z,95632.30
2019-01-24T10:41:15.724Z,95630.64
2019-01-24T10:43:47.980Z,95627.42
2019-01-24T10:46:18.750Z,95629.58
2019-01-24T10:48:53.012Z,95627.25
2019-01-24T10:51:23.717Z,95628.27
2019-01-24T10:53:53.082Z,95626.42
2019-01-24T10:56:22.398Z,95631.83
2019-01-24T10:58:55.140Z,95636.73
2019-01-24T11:01:24.615Z,95638.66
2019-01-24T11:03:57.921Z,95642.82
2019-01-24T11:06:31.651Z,95642.43
2019-01-24T11:09:02.442Z,95644.80
2019-01-24T11:11:31.775Z,95645.31
2019-01-24T11:14:00.999Z,95640.08
2019-01-24T11:16:33.489Z,95648.24
2019-01-24T11:19:02.796Z,95642.78
2019-01-24T11:21:32.044Z,95646.66
2019-01-24T11:24:01.641Z,95654.38
2019-01-24T11:26:34.012Z,95649.71
2019-01-24T11:29:04.053Z,95317.02
2019-01-24T11:31:33.328Z,95648.90
2019-01-24T11:34:05.765Z,95646.33
2019-01-24T11:36:34.983Z,95646.17
2019-01-24T11:39:07.370Z,95646.02
2019-01-24T11:41:36.442Z,95647.20
2019-01-24T11:44:05.706Z,95646.27
2019-01-24T11:46:37.462Z,95643.91
2019-01-24T11:49:06.631Z,95644.26
2019-01-24T11:51:41.393Z,95636.41
2019-01-24T11:54:18.469Z,95646.09
2019-01-24T11:56:51.348Z,95645.73
2019-01-24T11:59:20.040Z,95644.04
2019-01-24T12:01:52.305Z,95640.75
2019-01-24T12:04:24.924Z,95636.69
2019-01-24T12:06:55.370Z,95636.04
2019-01-24T12:09:27.806Z,95634.28
2019-01-24T12:11:59.709Z,95633.09
2019-01-24T12:14:30.942Z,95634.70
2019-01-24T12:17:03.367Z,95632.02
2019-01-24T12:19:33.570Z,95639.10
2019-01-24T12:22:02.985Z,95647.38
2019-01-24T12:24:34.712Z,95648.59
2019-01-24T12:27:13.421Z,95648.52
2019-01-24T12:29:43.710Z,95642.59
2019-01-24T12:32:16.748Z,95641.37
2019-01-24T12:34:46.083Z,95645.08
2019-01-24T12:37:18.575Z,95652.13
2019-01-24T12:39:55.702Z,95652.95
2019-01-24T12:42:36.490Z,95648.19
2019-01-24T12:45:08.047Z,95651.35
2019-01-24T12:47:51.328Z,95709.83
2019-01-24T12:50:09.683Z,95647.06
2019-01-24T12:52:41.213Z,95647.28
2019-01-24T12:55:12.015Z,95650.84
2019-01-24T12:57:44.223Z,95648.29
2019-01-24T13:00:18.514Z,95650.20
2019-01-24T13:02:48.765Z,95649.39
2019-01-24T13:05:19.940Z,95651.50
2019-01-24T13:07:53.432Z,95655.73
2019-01-24T13:10:26.448Z,95654.23
2019-01-24T13:12:58.843Z,95657.59
2019-01-24T13:15:29.888Z,95659.16
2019-01-24T13:17:59.078Z,95665.88
2019-01-24T13:20:28.415Z,95661.25
2019-01-24T13:22:58.726Z,95661.94
2019-01-24T13:25:33.331Z,95666.59
2019-01-24T13:28:07.528Z,95669.09
2019-01-24T13:30:34.696Z,95672.82
2019-01-24T13:33:06.122Z,95704.49
2019-01-24T13:35:35.914Z,95675.64
2019-01-24T13:38:07.781Z,95676.30
2019-01-24T13:40:37.434Z,95675.31
2019-01-24T13:43:11.085Z,95684.63
2019-01-24T13:45:46.539Z,94173.67
2019-01-24T13:48:16.037Z,95690.40
2019-01-24T13:50:45.826Z,95681.98
2019-01-24T13:53:17.276Z,95685.03
2019-01-24T13:55:49.453Z,95692.29
2019-01-24T13:58:21.855Z,95696.17
2019-01-24T14:00:52.389Z,95700.11
2019-01-24T14:03:54.574Z,95708.29
2019-01-24T14:06:37.958Z,95709.17
2019-01-24T14:11:50.349Z,95707.95
2019-01-24T14:14:20.670Z,95710.79
2019-01-24T14:16:51.306Z,95717.52
2019-01-24T14:19:23.573Z,95721.05
2019-01-24T14:21:55.095Z,95724.56
2019-01-24T14:24:28.109Z,95733.23
2019-01-24T14:27:01.440Z,95736.78
2019-01-24T14:29:30.840Z,95740.53
2019-01-24T14:32:06.303Z,95740.02
2019-01-24T14:34:36.961Z,95739.22
2019-01-24T14:37:08.822Z,95741.17
2019-01-24T14:39:38.849Z,95741.77
2019-01-24T14:42:16.329Z,95749.14
2019-01-24T14:44:45.669Z,95750.86
2019-01-24T14:47:16.341Z,95753.84
2019-01-24T14:49:48.812Z,95759.39
2019-01-24T14:52:21.410Z,95749.58
2019-01-24T14:54:51.479Z,95752.62
2019-01-24T14:57:22.974Z,95759.43
2019-01-24T14:59:53.982Z,95760.70
2019-01-24T15:02:23.950Z,95763.81
2019-01-24T15:04:53.156Z,95771.68
2019-01-24T15:07:24.858Z,95771.42
2019-01-24T15:09:55.398Z,95771.41
2019-01-24T15:12:26.323Z,95777.26
2019-01-24T15:14:55.467Z,95775.31
2019-01-24T15:17:24.846Z,95777.90
2019-01-24T15:19:56.058Z,95774.16
2019-01-24T15:22:25.560Z,95779.58
2019-01-24T15:24:54.842Z,95772.91
2019-01-24T15:27:24.101Z,95771.13
2019-01-24T15:29:56.197Z,95769.42
2019-01-24T15:32:25.498Z,95773.06
2019-01-24T15:34:57.595Z,95774.17
2019-01-24T15:37:26.812Z,95771.59
2019-01-24T15:39:56.009Z,95769.59
2019-01-24T15:42:26.446Z,95778.42
2019-01-24T15:45:00.844Z,95780.48
2019-01-24T15:47:40.267Z,95777.55
2019-01-24T15:50:00.942Z,95784.59
2019-01-24T15:52:34.108Z,95781.61
2019-01-24T15:55:03.315Z,95787.94
2019-01-24T15:57:36.508Z,95787.47
2019-01-24T16:00:11.196Z,95784.02
2019-01-24T16:02:41.743Z,95790.84
2019-01-24T16:05:12.971Z,95794.69
2019-01-24T16:08:01.333Z,95790.30
2019-01-24T16:10:27.715Z,95807.04
2019-01-24T16:12:56.979Z,95809.94
2019-01-24T16:15:29.044Z,95817.13
2019-01-24T16:17:58.316Z,95815.73
2019-01-24T16:20:36.718Z,95820.80
2019-01-24T16:23:09.003Z,95825.48
2019-01-24T16:25:41.692Z,95822.69
2019-01-24T16:28:12.855Z,95825.19
2019-01-24T16:30:42.001Z,95827.14
2019-01-24T16:33:12.526Z,95829.29
2019-01-24T16:35:44.926Z,95829.39
2019-01-24T16:38:25.300Z,95838.81
2019-01-24T16:40:54.668Z,95836.57
2019-01-24T16:43:27.846Z,95834.73
2019-01-24T16:45:57.107Z,95843.36
2019-01-24T16:48:26.404Z,95846.94
2019-01-24T16:50:55.587Z,95848.55
2019-01-24T16:53:24.702Z,95848.41
2019-01-24T16:55:58.017Z,95855.25
2019-01-24T16:58:31.005Z,95855.41
2019-01-24T17:01:16.647Z,95865.34
2019-01-24T17:03:45.802Z,95862.45
2019-01-24T17:06:15.318Z,95864.88
2019-01-24T17:08:47.275Z,95870.66
2019-01-24T17:11:17.726Z,95872.23
2019-01-24T17:13:53.117Z,95868.09
2019-01-24T17:16:23.273Z,95876.03
2019-01-24T17:18:53.755Z,95872.25
2019-01-24T17:21:22.953Z,95880.97
2019-01-24T17:23:56.820Z,95883.30
2019-01-24T17:26:28.397Z,95885.06
2019-01-24T17:28:58.148Z,95885.66
2019-01-24T17:31:30.704Z,95891.29
2019-01-24T17:34:00.949Z,95902.15
2019-01-24T17:36:36.544Z,95898.02
2019-01-24T17:39:10.333Z,95904.23
2019-01-24T17:41:39.467Z,95903.50
2019-01-24T17:44:08.838Z,95912.07
2019-01-24T17:46:39.296Z,95915.69
2019-01-24T17:49:10.978Z,95919.34
2019-01-24T17:51:41.654Z,95918.06
2019-01-24T17:54:14.569Z,95927.40
2019-01-24T17:56:46.849Z,95922.70
2019-01-24T17:59:17.183Z,95933.53
2019-01-24T18:01:46.529Z,95933.43
2019-01-24T18:04:22.006Z,95932.00
2019-01-24T18:07:00.267Z,95932.81
2019-01-24T18:09:29.446Z,95939.93
2019-01-24T18:11:59.118Z,96167.18
2019-01-24T18:14:32.492Z,95944.16
2019-01-24T18:17:01.641Z,95948.28
2019-01-24T18:19:31.352Z,95944.33
2019-01-24T18:22:02.980Z,95943.34
2019-01-24T18:24:32.291Z,95945.22
2019-01-24T18:27:04.627Z,95951.44
2019-01-24T18:29:33.819Z,95955.64
2019-01-24T18:32:03.004Z,95957.30
2019-01-24T18:34:35.134Z,95952.90
2019-01-24T18:37:05.480Z,95958.48
2019-01-24T18:39:38.269Z,95959.08
2019-01-24T18:42:07.459Z,95960.56
2019-01-24T18:44:36.732Z,95959.05
2019-01-24T18:47:08.889Z,95959.34
2019-01-24T18:49:44.379Z,95962.47
2019-01-24T18:52:13.392Z,95965.11
2019-01-24T18:54:42.876Z,95973.19
2019-01-24T18:57:18.682Z,95975.46
2019-01-24T18:59:47.971Z,95976.48
2019-01-24T19:02:22.115Z,95972.20
2019-01-24T19:04:53.114Z,95968.45
2019-01-24T19:07:22.281Z,95977.96
2019-01-24T19:09:51.437Z,95981.98
2019-01-24T19:12:24.848Z,95979.05
2019-01-24T19:15:01.285Z,95983.16
2019-01-24T19:17:30.439Z,95984.34
2019-01-24T19:20:03.728Z,95999.34
2019-01-24T19:22:37.270Z,95996.06
2019-01-24T19:25:13.292Z,95999.27
2019-01-24T19:27:42.595Z,95990.71
2019-01-24T19:30:18.035Z,95986.44
2019-01-24T19:32:51.637Z,95990.41
2019-01-24T19:35:25.256Z,95986.45
2019-01-24T19:37:52.883Z,95994.05
2019-01-24T19:40:25.748Z,95997.00
2019-01-24T19:42:59.073Z,95998.08
2019-01-24T19:45:33.564Z,96007.12
2019-01-24T19:48:08.372Z,96004.17
2019-01-24T19:50:40.386Z,96006.86
2019-01-24T19:53:13.065Z,96008.72
2019-01-24T19:55:48.203Z,96001.49
2019-01-24T19:58:18.418Z,96006.70
2019-01-24T20:00:49.505Z,96010.91
2019-01-24T20:03:19.761Z,96014.45
2019-01-24T20:05:50.550Z,96014.90
2019-01-24T20:08:20.110Z,96050.47
2019-01-24T20:10:52.370Z,96031.22
2019-01-24T20:13:21.526Z,96032.45
2019-01-24T20:15:50.683Z,94470.36
2019-01-24T20:18:19.838Z,96040.94
2019-01-24T20:20:51.088Z,96035.27
2019-01-24T20:23:21.885Z,96036.20
2019-01-24T20:25:51.123Z,96041.55
2019-01-24T20:28:21.368Z,96042.43
2019-01-24T20:30:50.795Z,96041.92
2019-01-24T20:33:20.065Z,96045.98
2019-01-24T20:35:52.518Z,96051.34
2019-01-24T20:38:22.120Z,96053.81
2019-01-24T20:40:51.331Z,96049.89
2019-01-24T20:43:26.492Z,96061.81
2019-01-24T20:45:55.650Z,96091.56
2019-01-24T20:48:24.779Z,96059.83
2019-01-24T20:51:01.671Z,96061.34
2019-01-24T20:53:30.832Z,96063.38
2019-01-24T20:56:03.969Z,96069.75
2019-01-24T20:58:37.433Z,96069.25
2019-01-24T21:01:09.984Z,96069.63
2019-01-24T21:03:39.699Z,96078.27
2019-01-24T21:06:10.742Z,96071.19
2019-01-24T21:08:39.924Z,96076.55
2019-01-24T21:11:09.298Z,96079.91
2019-01-24T21:13:40.014Z,96080.00
2019-01-24T21:16:09.107Z,96082.22
2019-01-24T21:18:39.748Z,96084.47
2019-01-24T21:21:08.971Z,96093.35
2019-01-24T21:23:49.342Z,96095.44
2019-01-24T21:26:21.446Z,96092.88
2019-01-24T21:28:50.643Z,96094.12
2019-01-24T21:31:19.837Z,96093.81
2019-01-24T21:33:49.007Z,96094.95
2019-01-24T21:36:24.246Z,96097.83
2019-01-24T21:38:56.209Z,96096.80
2019-01-24T21:41:25.478Z,96097.45
2019-01-24T21:44:03.699Z,96096.57
2019-01-24T21:46:32.849Z,96096.53
2019-01-24T21:49:02.915Z,96096.20
2019-01-24T21:51:33.405Z,96100.81
2019-01-24T21:54:05.542Z,96100.13
2019-01-24T21:56:35.988Z,96099.21
2019-01-24T21:59:07.241Z,96101.15
2019-01-24T22:01:37.691Z,96106.75
2019-01-24T22:04:08.374Z,96104.57
2019-01-24T22:06:37.725Z,96103.26
2019-01-24T22:09:14.445Z,96105.12
2019-01-24T22:11:43.577Z,96113.50
2019-01-24T22:14:15.975Z,96106.38
2019-01-24T22:16:46.820Z,96109.39
2019-01-24T22:19:16.144Z,96107.75
2019-01-24T22:21:47.209Z,96109.34
2019-01-24T22:24:16.825Z,96148.71
2019-01-24T22:26:46.208Z,96115.28
2019-01-24T22:29:16.865Z,96113.02
2019-01-24T22:31:46.039Z,96117.28
2019-01-24T22:34:16.917Z,96115.84
2019-01-24T22:36:51.124Z,96119.34
2019-01-24T22:39:21.550Z,96112.08
2019-01-24T22:41:55.252Z,96109.39
2019-01-24T22:44:24.399Z,96118.82
2019-01-24T22:46:56.892Z,96112.35
2019-01-24T22:49:36.356Z,96114.83
2019-01-24T22:52:11.384Z,96112.28
2019-01-24T22:54:43.626Z,96109.34
2019-01-24T22:57:12.981Z,96116.58
2019-01-24T22:59:42.451Z,96114.83
2019-01-24T23:02:31.876Z,96110.60
2019-01-24T23:05:01.024Z,96115.45
2019-01-24T23:07:30.162Z,96111.47
2019-01-24T23:10:04.458Z,96112.34
2019-01-24T23:12:33.787Z,96122.70
2019-01-24T23:15:09.468Z,96115.08
2019-01-24T23:17:41.171Z,96114.41
2019-01-24T23:20:11.849Z,96114.39
2019-01-24T23:22:44.211Z,96120.12
2019-01-24T23:25:13.370Z,96123.73
2019-01-24T23:27:42.672Z,96123.23
2019-01-24T23:30:12.189Z,96122.45
2019-01-24T23:32:45.889Z,96120.89
2019-01-24T23:35:17.675Z,96127.02
2019-01-24T23:37:52.315Z,96119.98
2019-01-24T23:40:23.239Z,96121.58
2019-01-24T23:42:59.183Z,96123.46
2019-01-24T23:45:28.600Z,96122.33
2019-01-24T23:48:03.971Z,96134.07
2019-01-24T23:50:33.159Z,96128.87
2019-01-24T23:53:03.086Z,96133.10
2019-01-24T23:55:33.414Z,96129.75
2019-01-24T23:58:05.558Z,96124.02
